createdAt,value
2023-06-23T00:02:21.350Z,99.90
2023-06-23T00:04:48.470Z,99.90
2023-06-23T00:07:16.249Z,99.90
2023-06-23T00:09:44.977Z,99.90
2023-06-23T00:12:12.230Z,99.90
2023-06-23T00:14:39.414Z,99.90
2023-06-23T00:17:08.484Z,99.90
2023-06-23T00:19:35.783Z,99.90
2023-06-23T00:22:04.341Z,99.90
2023-06-23T00:24:33.625Z,99.90
2023-06-23T00:27:04.345Z,99.90
2023-06-23T00:29:31.505Z,99.90
2023-06-23T00:31:58.683Z,99.90
2023-06-23T00:34:25.782Z,99.90
2023-06-23T00:36:53.048Z,99.90
2023-06-23T00:39:20.324Z,99.90
2023-06-23T00:41:47.555Z,99.90
2023-06-23T00:44:14.823Z,99.90
2023-06-23T00:46:44.963Z,99.90
2023-06-23T00:49:16.446Z,99.90
2023-06-23T00:51:43.994Z,99.90
2023-06-23T00:54:11.187Z,99.90
2023-06-23T00:56:38.424Z,99.90
2023-06-23T00:59:06.744Z,99.90
2023-06-23T01:01:34.045Z,99.90
2023-06-23T01:04:01.704Z,99.90
2023-06-23T01:06:40.358Z,99.90
2023-06-23T01:09:40.880Z,99.90
2023-06-23T01:12:08.057Z,99.90
2023-06-23T01:14:56.335Z,99.90
2023-06-23T01:17:30.688Z,99.90
2023-06-23T01:20:30.537Z,99.90
2023-06-23T01:23:25.498Z,99.90
2023-06-23T01:26:06.643Z,99.90
2023-06-23T01:28:59.550Z,99.90
2023-06-23T01:31:57.707Z,99.90
2023-06-23T01:34:36.120Z,99.90
2023-06-23T01:37:09.590Z,99.90
2023-06-23T01:39:40.227Z,99.90
2023-06-23T01:42:14.773Z,99.90
2023-06-23T01:44:47.008Z,99.90
2023-06-23T01:47:20.390Z,99.90
2023-06-23T01:49:50.123Z,99.90
2023-06-23T01:52:18.567Z,99.90
2023-06-23T01:54:48.831Z,99.90
2023-06-23T01:57:17.261Z,99.90
2023-06-23T01:59:46.127Z,99.90
2023-06-23T02:02:16.451Z,99.90
2023-06-23T02:04:47.186Z,99.90
2023-06-23T02:07:17.729Z,99.90
2023-06-23T02:09:46.518Z,99.90
2023-06-23T02:12:15.642Z,99.90
2023-06-23T02:14:45.327Z,99.90
2023-06-23T02:17:14.216Z,99.90
2023-06-23T02:19:44.630Z,99.90
2023-06-23T02:22:15.431Z,99.90
2023-06-23T02:24:43.467Z,99.90
2023-06-23T02:27:11.186Z,99.90
2023-06-23T02:29:41.435Z,99.90
2023-06-23T02:32:09.684Z,99.90
2023-06-23T02:34:36.952Z,99.90
2023-06-23T02:37:07.425Z,99.90
2023-06-23T02:39:41.163Z,99.90
2023-06-23T02:42:11.090Z,99.90
2023-06-23T02:44:42.676Z,99.90
2023-06-23T02:47:16.447Z,99.90
2023-06-23T02:49:46.634Z,99.90
2023-06-23T02:52:16.635Z,99.90
2023-06-23T02:54:49.257Z,99.90
2023-06-23T02:57:19.434Z,99.90
2023-06-23T02:59:48.132Z,99.90
2023-06-23T03:02:23.871Z,99.90
2023-06-23T03:04:52.077Z,99.90
2023-06-23T03:07:19.603Z,99.90
2023-06-23T03:09:46.733Z,99.90
2023-06-23T03:12:14.200Z,99.90
2023-06-23T03:14:41.565Z,99.90
2023-06-23T03:17:15.718Z,99.90
2023-06-23T03:19:55.007Z,99.90
2023-06-23T03:22:29.932Z,99.90
2023-06-23T03:25:04.122Z,99.90
2023-06-23T03:27:34.316Z,99.90
2023-06-23T03:30:04.936Z,99.90
2023-06-23T03:32:37.514Z,99.90
2023-06-23T03:35:14.498Z,99.90
2023-06-23T03:37:49.784Z,99.90
2023-06-23T03:40:21.031Z,99.90
2023-06-23T03:43:06.704Z,99.90
2023-06-23T03:45:35.919Z,99.90
2023-06-23T03:48:07.482Z,99.90
2023-06-23T03:50:37.402Z,99.90
2023-06-23T03:53:06.274Z,99.90
2023-06-23T03:55:34.963Z,99.90
2023-06-23T03:58:06.459Z,99.90
2023-06-23T04:00:39.054Z,99.90
2023-06-23T04:03:09.068Z,99.90
2023-06-23T04:05:39.392Z,99.90
2023-06-23T04:08:07.900Z,99.90
2023-06-23T04:10:36.938Z,99.90
2023-06-23T04:13:06.435Z,99.90
2023-06-23T04:15:37.587Z,99.90
2023-06-23T04:18:08.334Z,99.90
2023-06-23T04:20:39.686Z,99.90
2023-06-23T04:23:07.497Z,99.90
2023-06-23T04:25:34.857Z,99.90
2023-06-23T04:28:06.134Z,99.90
2023-06-23T04:30:35.771Z,99.90
2023-06-23T04:33:03.343Z,99.90
2023-06-23T04:35:31.247Z,99.90
2023-06-23T04:38:07.981Z,99.90
2023-06-23T04:40:47.070Z,99.90
2023-06-23T04:43:28.315Z,99.90
2023-06-23T04:45:58.383Z,99.90
2023-06-23T04:48:29.497Z,99.90
2023-06-23T04:50:59.662Z,99.90
2023-06-23T04:53:35.489Z,99.90
2023-06-23T04:56:07.147Z,99.90
2023-06-23T04:58:38.294Z,99.90
2023-06-23T05:01:10.193Z,99.90
2023-06-23T05:03:39.995Z,99.90
2023-06-23T05:06:09.739Z,99.90
2023-06-23T05:08:37.650Z,99.90
2023-06-23T05:11:07.753Z,99.90
2023-06-23T05:13:37.845Z,97.40
2023-06-23T05:16:11.877Z,95.60
2023-06-23T05:18:41.943Z,94.20
2023-06-23T05:21:09.584Z,93.50
2023-06-23T05:26:15.664Z,91.60
2023-06-23T05:28:44.811Z,91.30
2023-06-23T05:31:14.797Z,89.60
2023-06-23T05:33:45.470Z,86.00
2023-06-23T05:36:14.631Z,85.70
2023-06-23T05:38:44.824Z,83.50
2023-06-23T05:41:12.169Z,81.20
2023-06-23T05:43:40.244Z,81.20
2023-06-23T05:46:12.230Z,81.70
2023-06-23T05:48:54.136Z,83.30
2023-06-23T05:51:31.646Z,83.30
2023-06-23T05:54:02.341Z,82.30
2023-06-23T05:56:33.796Z,80.20
2023-06-23T05:59:06.867Z,81.70
2023-06-23T06:01:40.571Z,81.20
2023-06-23T06:04:17.618Z,79.90
2023-06-23T06:06:47.401Z,78.80
2023-06-23T06:09:16.974Z,80.30
2023-06-23T06:11:46.123Z,79.00
2023-06-23T06:14:16.794Z,78.20
2023-06-23T06:16:45.372Z,78.10
2023-06-23T06:19:14.672Z,78.30
2023-06-23T06:21:44.657Z,79.50
2023-06-23T06:24:15.631Z,80.60
2023-06-23T06:26:44.791Z,77.60
2023-06-23T06:29:15.486Z,76.80
2023-06-23T06:31:46.385Z,76.00
2023-06-23T06:34:17.415Z,76.20
2023-06-23T06:36:46.058Z,76.10
2023-06-23T06:39:15.214Z,76.30
2023-06-23T06:41:43.563Z,75.90
2023-06-23T06:44:10.847Z,75.50
2023-06-23T06:46:40.658Z,74.80
2023-06-23T06:49:09.829Z,74.50
2023-06-23T06:51:38.522Z,74.90
2023-06-23T06:54:05.770Z,74.80
2023-06-23T06:56:34.232Z,74.20
2023-06-23T06:59:01.610Z,73.50
2023-06-23T07:01:30.191Z,71.10
2023-06-23T07:03:58.176Z,71.40
2023-06-23T07:06:27.315Z,71.50
2023-06-23T07:08:54.483Z,71.50
2023-06-23T07:11:21.820Z,72.20
2023-06-23T07:13:48.986Z,71.60
2023-06-23T07:16:16.272Z,71.00
2023-06-23T07:18:43.366Z,70.20
2023-06-23T07:21:11.911Z,70.60
2023-06-23T07:23:39.444Z,70.00
2023-06-23T07:26:06.909Z,69.40
2023-06-23T07:28:34.118Z,69.20
2023-06-23T07:31:01.579Z,68.90
2023-06-23T07:33:29.037Z,68.30
2023-06-23T07:35:56.159Z,65.80
2023-06-23T07:38:23.451Z,65.10
2023-06-23T07:40:50.720Z,67.30
2023-06-23T07:43:18.016Z,67.00
2023-06-23T07:45:45.291Z,65.90
2023-06-23T07:48:12.484Z,67.40
2023-06-23T07:50:39.796Z,67.40
2023-06-23T07:53:07.023Z,66.20
2023-06-23T07:55:34.277Z,67.70
2023-06-23T07:58:01.579Z,68.20
2023-06-23T08:00:29.108Z,69.40
2023-06-23T08:02:56.403Z,69.40
2023-06-23T08:05:24.907Z,70.50
2023-06-23T08:07:52.167Z,71.00
2023-06-23T08:10:19.383Z,69.10
2023-06-23T08:12:46.568Z,68.30
2023-06-23T08:15:14.316Z,67.80
2023-06-23T08:17:41.984Z,65.70
2023-06-23T08:20:10.394Z,65.30
2023-06-23T08:22:41.201Z,67.00
2023-06-23T08:25:09.491Z,67.00
2023-06-23T08:27:36.815Z,66.10
2023-06-23T08:30:04.749Z,66.00
2023-06-23T08:32:32.053Z,66.70
2023-06-23T08:34:59.722Z,68.20
2023-06-23T08:37:26.942Z,66.20
2023-06-23T08:39:54.108Z,66.20
2023-06-23T08:42:22.940Z,65.60
2023-06-23T08:44:52.683Z,65.30
2023-06-23T08:47:21.250Z,65.70
2023-06-23T08:49:51.192Z,66.00
2023-06-23T08:52:18.951Z,66.00
2023-06-23T08:54:46.373Z,66.50
2023-06-23T08:57:14.395Z,64.60
2023-06-23T08:59:41.992Z,64.70
2023-06-23T09:02:09.163Z,62.30
2023-06-23T09:04:36.496Z,61.70
2023-06-23T09:07:03.720Z,62.00
2023-06-23T09:09:32.824Z,62.40
2023-06-23T09:12:01.534Z,62.50
2023-06-23T09:14:31.942Z,63.00
2023-06-23T09:16:59.886Z,63.50
2023-06-23T09:19:29.250Z,64.10
2023-06-23T09:21:57.165Z,64.80
2023-06-23T09:24:24.543Z,64.20
2023-06-23T09:26:58.405Z,64.90
2023-06-23T09:29:29.509Z,64.00
2023-06-23T09:31:57.099Z,62.60
2023-06-23T09:34:39.021Z,62.50
2023-06-23T09:37:11.191Z,59.50
2023-06-23T09:39:40.458Z,59.30
2023-06-23T09:42:14.307Z,61.10
2023-06-23T09:44:43.938Z,59.60
2023-06-23T09:47:11.179Z,59.60
2023-06-23T09:49:43.376Z,57.50
2023-06-23T09:52:15.848Z,59.20
2023-06-23T09:54:43.328Z,59.50
2023-06-23T09:57:14.841Z,60.30
2023-06-23T09:59:44.085Z,60.70
2023-06-23T10:02:21.858Z,60.50
2023-06-23T10:04:58.911Z,60.90
2023-06-23T10:07:27.669Z,60.50
2023-06-23T10:10:08.201Z,59.70
2023-06-23T10:12:44.249Z,59.70
2023-06-23T10:15:12.106Z,61.00
2023-06-23T10:17:40.247Z,59.90
2023-06-23T10:20:08.420Z,59.30
2023-06-23T10:22:37.798Z,58.50
2023-06-23T10:25:11.666Z,61.20
2023-06-23T10:27:41.817Z,58.50
2023-06-23T10:30:12.139Z,58.80
2023-06-23T10:32:41.792Z,59.30
2023-06-23T10:35:11.987Z,58.40
2023-06-23T10:37:45.326Z,58.90
2023-06-23T10:40:19.955Z,58.70
2023-06-23T10:42:50.443Z,56.10
2023-06-23T10:45:18.063Z,56.20
2023-06-23T10:47:46.970Z,57.10
2023-06-23T10:50:15.839Z,57.30
2023-06-23T10:52:45.981Z,56.90
2023-06-23T10:55:45.838Z,56.40
2023-06-23T10:58:20.105Z,56.50
2023-06-23T11:00:56.612Z,57.40
2023-06-23T11:03:33.833Z,55.60
2023-06-23T11:06:11.733Z,55.50
2023-06-23T11:08:41.453Z,54.90
2023-06-23T11:11:16.773Z,56.20
2023-06-23T11:13:49.787Z,56.10
2023-06-23T11:16:32.147Z,57.30
2023-06-23T11:19:01.826Z,56.70
2023-06-23T11:22:08.900Z,54.30
2023-06-23T11:24:36.125Z,54.60
2023-06-23T11:27:04.097Z,54.10
2023-06-23T11:29:33.401Z,54.60
2023-06-23T11:32:15.777Z,55.00
2023-06-23T11:35:10.523Z,54.60
2023-06-23T11:37:40.262Z,52.60
2023-06-23T11:40:10.444Z,48.90
2023-06-23T11:42:38.051Z,49.30
2023-06-23T11:45:05.949Z,48.20
2023-06-23T11:47:34.653Z,48.40
2023-06-23T11:50:08.094Z,49.60
2023-06-23T11:52:35.816Z,49.40
2023-06-23T11:55:05.362Z,50.20
2023-06-23T11:57:33.679Z,50.80
2023-06-23T12:00:01.259Z,54.20
2023-06-23T12:02:28.627Z,55.10
2023-06-23T12:05:01.276Z,56.60
2023-06-23T12:07:31.573Z,57.40
2023-06-23T12:09:58.891Z,55.10
2023-06-23T12:12:26.263Z,55.90
2023-06-23T12:15:00.756Z,53.30
2023-06-23T12:17:28.106Z,53.50
2023-06-23T12:19:56.036Z,54.00
2023-06-23T12:22:23.482Z,54.70
2023-06-23T12:24:51.013Z,53.90
2023-06-23T12:27:19.396Z,50.40
2023-06-23T12:29:46.666Z,51.40
2023-06-23T12:32:13.957Z,50.60
2023-06-23T12:34:50.464Z,51.00
2023-06-23T12:37:19.708Z,50.10
2023-06-23T12:39:55.608Z,49.30
2023-06-23T12:42:23.945Z,49.70
2023-06-23T12:44:52.283Z,48.20
2023-06-23T12:47:20.448Z,49.10
2023-06-23T12:49:49.433Z,48.70
2023-06-23T12:52:16.859Z,49.70
2023-06-23T12:54:44.635Z,49.60
2023-06-23T12:57:12.375Z,49.80
2023-06-23T12:59:39.614Z,48.40
2023-06-23T13:02:07.673Z,50.30
2023-06-23T13:04:35.000Z,50.90
2023-06-23T13:07:02.359Z,49.80
2023-06-23T13:09:30.224Z,51.80
2023-06-23T13:11:57.371Z,51.80
2023-06-23T13:14:24.748Z,53.00
2023-06-23T13:16:52.061Z,50.60
2023-06-23T13:19:19.224Z,51.30
2023-06-23T13:21:48.518Z,52.70
2023-06-23T13:24:15.920Z,54.10
2023-06-23T13:26:48.601Z,53.30
2023-06-23T13:29:17.396Z,54.20
2023-06-23T13:31:45.445Z,55.40
2023-06-23T13:34:12.726Z,55.60
2023-06-23T13:36:39.918Z,56.50
2023-06-23T13:39:07.133Z,56.10
2023-06-23T13:41:34.334Z,57.80
2023-06-23T13:44:01.567Z,59.30
2023-06-23T13:46:28.905Z,61.40
2023-06-23T13:48:56.139Z,60.20
2023-06-23T13:51:23.353Z,61.50
2023-06-23T13:53:50.609Z,65.20
2023-06-23T13:56:18.293Z,65.80
2023-06-23T13:58:45.590Z,63.90
2023-06-23T14:01:12.825Z,66.20
2023-06-23T14:03:39.960Z,65.30
2023-06-23T14:06:07.406Z,66.10
2023-06-23T14:08:36.847Z,67.20
2023-06-23T14:11:04.154Z,67.60
2023-06-23T14:13:31.663Z,69.20
2023-06-23T14:15:59.145Z,68.80
2023-06-23T14:18:26.467Z,69.30
2023-06-23T14:20:53.652Z,69.80
2023-06-23T14:23:21.037Z,70.10
2023-06-23T14:25:48.326Z,71.20
2023-06-23T14:28:16.101Z,72.10
2023-06-23T14:30:43.720Z,72.70
2023-06-23T14:33:11.879Z,73.60
2023-06-23T14:35:39.194Z,74.30
2023-06-23T14:38:07.148Z,74.60
2023-06-23T14:40:34.722Z,75.10
2023-06-23T14:43:03.948Z,76.10
2023-06-23T14:45:41.578Z,77.10
2023-06-23T14:48:09.129Z,78.10
2023-06-23T14:50:37.176Z,78.20
2023-06-23T14:53:04.568Z,79.60
2023-06-23T14:55:34.816Z,80.90
2023-06-23T14:58:04.539Z,80.70
2023-06-23T15:00:32.026Z,81.70
2023-06-23T15:02:59.506Z,82.40
2023-06-23T15:05:27.011Z,82.60
2023-06-23T15:07:57.193Z,82.80
2023-06-23T15:10:24.413Z,78.20
2023-06-23T15:12:52.106Z,74.40
2023-06-23T15:15:19.369Z,68.10
2023-06-23T15:17:46.730Z,64.90
2023-06-23T15:20:15.914Z,63.60
2023-06-23T15:22:45.730Z,65.60
2023-06-23T15:25:13.195Z,66.40
2023-06-23T15:27:40.993Z,70.90
2023-06-23T15:30:10.331Z,73.40
2023-06-23T15:32:37.558Z,75.70
2023-06-23T15:35:05.214Z,75.80
2023-06-23T15:37:32.699Z,76.20
2023-06-23T15:40:00.131Z,75.10
2023-06-23T15:42:27.741Z,74.80
2023-06-23T15:44:54.861Z,75.30
2023-06-23T15:47:22.762Z,74.40
2023-06-23T15:49:50.899Z,75.00
2023-06-23T15:52:18.797Z,74.40
2023-06-23T15:54:46.147Z,71.80
2023-06-23T15:57:13.377Z,72.00
2023-06-23T15:59:40.764Z,73.10
2023-06-23T16:02:09.302Z,73.50
2023-06-23T16:04:36.823Z,75.20
2023-06-23T16:07:08.091Z,75.00
2023-06-23T16:09:35.390Z,78.90
2023-06-23T16:12:03.112Z,81.50
2023-06-23T16:14:30.487Z,79.90
2023-06-23T16:16:59.800Z,81.70
2023-06-23T16:19:26.934Z,83.80
2023-06-23T16:21:54.051Z,79.30
2023-06-23T16:24:21.267Z,82.20
2023-06-23T16:26:48.486Z,90.30
2023-06-23T16:29:15.693Z,90.70
2023-06-23T16:31:43.030Z,90.00
2023-06-23T16:34:10.212Z,90.30
2023-06-23T16:36:37.419Z,91.30
2023-06-23T16:39:05.117Z,91.90
2023-06-23T16:41:33.757Z,92.90
2023-06-23T16:44:01.225Z,92.90
2023-06-23T16:46:28.505Z,93.00
2023-06-23T16:48:56.688Z,94.70
2023-06-23T16:51:32.605Z,95.10
2023-06-23T16:54:07.995Z,96.20
2023-06-23T16:56:35.098Z,95.60
2023-06-23T16:59:02.450Z,90.00
2023-06-23T17:01:30.425Z,87.00
2023-06-23T17:03:57.986Z,87.60
2023-06-23T17:06:25.453Z,86.30
2023-06-23T17:08:52.720Z,87.70
2023-06-23T17:11:20.069Z,87.50
2023-06-23T17:13:47.329Z,85.80
2023-06-23T17:16:14.616Z,84.10
2023-06-23T17:18:41.796Z,82.80
2023-06-23T17:21:09.107Z,82.90
2023-06-23T17:23:36.262Z,82.80
2023-06-23T17:26:03.486Z,81.50
2023-06-23T17:28:30.962Z,81.10
2023-06-23T17:30:58.309Z,80.10
2023-06-23T17:33:25.610Z,78.70
2023-06-23T17:35:52.995Z,82.00
2023-06-23T17:38:20.233Z,85.80
2023-06-23T17:40:47.412Z,85.70
2023-06-23T17:43:15.789Z,86.80
2023-06-23T17:45:44.602Z,85.90
2023-06-23T17:48:12.419Z,85.70
2023-06-23T17:50:39.769Z,85.80
2023-06-23T17:53:06.999Z,85.70
2023-06-23T17:55:34.866Z,87.10
2023-06-23T17:58:02.282Z,89.10
2023-06-23T18:00:32.137Z,89.40
2023-06-23T18:03:01.274Z,90.70
2023-06-23T18:05:28.707Z,91.70
2023-06-23T18:07:57.173Z,91.80
2023-06-23T18:10:25.237Z,92.30
2023-06-23T18:12:52.861Z,93.50
2023-06-23T18:15:20.081Z,94.40
2023-06-23T18:17:47.518Z,95.20
2023-06-23T18:20:15.582Z,96.50
2023-06-23T18:22:43.082Z,97.20
2023-06-23T18:25:12.184Z,98.70
2023-06-23T18:27:43.420Z,99.90
2023-06-23T18:30:11.601Z,99.90
2023-06-23T18:32:39.625Z,99.90
2023-06-23T18:35:08.431Z,99.90
2023-06-23T18:37:36.005Z,99.90
2023-06-23T18:40:03.447Z,99.90
2023-06-23T18:42:31.344Z,99.90
2023-06-23T18:44:58.648Z,99.90
2023-06-23T18:47:28.107Z,99.90
2023-06-23T18:49:55.577Z,99.90
2023-06-23T18:52:23.903Z,99.90
2023-06-23T18:54:52.694Z,99.60
2023-06-23T18:57:26.997Z,99.90
2023-06-23T18:59:58.961Z,98.90
2023-06-23T19:02:29.940Z,99.30
2023-06-23T19:05:02.122Z,99.90
2023-06-23T19:07:33.057Z,99.90
2023-06-23T19:10:04.906Z,99.90
2023-06-23T19:12:40.321Z,99.90
2023-06-23T19:15:12.062Z,99.90
2023-06-23T19:17:44.203Z,99.40
2023-06-23T19:20:16.062Z,99.90
2023-06-23T19:22:47.405Z,99.90
2023-06-23T19:25:18.660Z,99.90
2023-06-23T19:27:47.143Z,99.90
2023-06-23T19:30:17.922Z,98.50
2023-06-23T19:32:48.773Z,99.50
2023-06-23T19:35:16.238Z,98.60
2023-06-23T19:37:43.412Z,99.30
2023-06-23T19:40:13.711Z,98.20
2023-06-23T19:42:46.199Z,97.80
2023-06-23T19:45:13.816Z,97.80
2023-06-23T19:47:43.585Z,98.20
2023-06-23T19:50:14.292Z,98.20
2023-06-23T19:52:45.005Z,98.60
2023-06-23T19:55:14.341Z,98.90
2023-06-23T19:57:42.912Z,99.00
2023-06-23T20:00:10.571Z,99.40
2023-06-23T20:02:37.852Z,98.40
2023-06-23T20:05:05.327Z,99.50
2023-06-23T20:07:32.655Z,99.00
2023-06-23T20:09:59.885Z,99.20
2023-06-23T20:12:27.514Z,98.90
2023-06-23T20:14:54.786Z,99.70
2023-06-23T20:17:22.209Z,99.90
2023-06-23T20:19:52.072Z,99.90
2023-06-23T20:22:19.609Z,99.90
2023-06-23T20:24:46.798Z,99.90
2023-06-23T20:27:14.030Z,99.90
2023-06-23T20:29:41.203Z,99.90
2023-06-23T20:32:09.919Z,99.90
2023-06-23T20:34:37.117Z,99.90
2023-06-23T20:37:05.324Z,99.90
2023-06-23T20:39:32.771Z,99.90
2023-06-23T20:42:03.135Z,99.90
2023-06-23T20:44:30.497Z,99.90
2023-06-23T20:46:57.845Z,99.90
2023-06-23T20:49:27.213Z,99.90
2023-06-23T20:51:54.903Z,99.90
2023-06-23T20:54:22.204Z,99.90
2023-06-23T20:56:49.513Z,99.90
2023-06-23T20:59:17.953Z,99.90
2023-06-23T21:01:47.545Z,99.90
2023-06-23T21:04:16.735Z,99.90
2023-06-23T21:06:46.122Z,99.90
2023-06-23T21:09:17.878Z,99.90
2023-06-23T21:11:49.081Z,99.90
2023-06-23T21:14:20.227Z,99.90
2023-06-23T21:16:50.489Z,99.90
2023-06-23T21:19:22.319Z,99.90
2023-06-23T21:21:49.747Z,99.90
2023-06-23T21:24:19.990Z,99.90
2023-06-23T21:26:52.461Z,99.90
2023-06-23T21:29:23.440Z,99.90
2023-06-23T21:31:52.143Z,99.90
2023-06-23T21:34:20.143Z,99.90
2023-06-23T21:36:48.994Z,99.90
2023-06-23T21:39:19.191Z,99.90
2023-06-23T21:41:49.647Z,99.90
2023-06-23T21:44:19.301Z,99.90
2023-06-23T21:46:49.602Z,99.90
2023-06-23T21:49:19.805Z,99.90
2023-06-23T21:51:53.061Z,99.90
2023-06-23T21:54:28.456Z,99.90
2023-06-23T21:56:59.056Z,99.90
2023-06-23T21:59:30.042Z,99.90
2023-06-23T22:01:57.350Z,99.90
2023-06-23T22:04:24.634Z,99.90
2023-06-23T22:06:51.826Z,99.90
2023-06-23T22:09:19.085Z,99.90
2023-06-23T22:11:46.387Z,99.90
2023-06-23T22:14:17.161Z,99.90
2023-06-23T22:16:45.334Z,99.90
2023-06-23T22:19:13.565Z,99.90
2023-06-23T22:21:42.036Z,99.90
2023-06-23T22:24:09.317Z,99.90
2023-06-23T22:26:36.467Z,99.90
2023-06-23T22:29:03.736Z,99.90
2023-06-23T22:31:31.906Z,99.90
2023-06-23T22:33:59.628Z,99.90
2023-06-23T22:36:34.577Z,99.90
2023-06-23T22:39:04.842Z,99.90
2023-06-23T22:41:32.392Z,99.90
2023-06-23T22:43:59.669Z,99.90
2023-06-23T22:46:27.229Z,99.90
2023-06-23T22:48:57.566Z,99.90
2023-06-23T22:51:25.484Z,99.90
2023-06-23T22:53:52.756Z,99.90
2023-06-23T22:56:21.438Z,99.90
2023-06-23T22:58:49.845Z,99.90
2023-06-23T23:01:17.662Z,99.90
2023-06-23T23:03:44.955Z,99.90
2023-06-23T23:06:12.412Z,99.90
2023-06-23T23:08:39.591Z,99.90
2023-06-23T23:11:06.876Z,99.90
2023-06-23T23:13:34.290Z,99.90
2023-06-23T23:16:01.436Z,99.90
2023-06-23T23:18:28.643Z,99.90
2023-06-23T23:20:55.835Z,99.90
2023-06-23T23:23:23.621Z,99.90
2023-06-23T23:25:50.874Z,99.90
2023-06-23T23:28:18.000Z,99.90
2023-06-23T23:30:45.144Z,99.90
2023-06-23T23:33:12.554Z,99.90
2023-06-23T23:35:40.473Z,99.90
2023-06-23T23:38:08.680Z,99.90
2023-06-23T23:40:36.165Z,99.90
2023-06-23T23:43:04.102Z,99.90
2023-06-23T23:45:31.300Z,99.90
2023-06-23T23:47:58.473Z,99.90
2023-06-23T23:50:25.600Z,99.90
2023-06-23T23:52:52.832Z,99.90
2023-06-23T23:55:19.997Z,99.90
2023-06-23T23:57:47.329Z,99.90
